Tahawus, New York
Current Conditions -  °F | °C
As of 3:51 PM on Tuesday 25 Nov 2014 (Local Time) from KSLK Reporting Station
Light Snow Light Snow  
Wind Chill: 29°   Ceiling: 4200
Heat Index: 38°   Visibility: 9mi
Dew Point: 24°   Wind: 15mph
Humidity: 57%   Direction: 230°SW
Pressure: 29.86"   Gusts: 30mph
Location:  44.0508°N, 74.0396°W
Report Text: KSLK 252051Z AUTO 23013G26KT 9SM -SN BKN042 BKN055 03/M04 A2986 RMK AO2 PK WND 23026/2043 RAE15SNB15E22B46 SLP125 P0000 60000 T00331044 53016
Loading
Personal Weather Stations






























Interactive Weather Map New forecast layout! Learn more

10-Day Weather Forecast

Advertisements
Track Severe Weather on mobile